Terminal Aerodrome Forecast
Issued by NWS

Current Version | Previous Version | Text Only | Print | Product List | Glossary On
Versions: 1 2 3 4 5 6 7 8 9 10 11 12 13 14
000
FTUS45 KABQ 262300
TAFFMN
TAF
KFMN 262335Z 2700/2724 27015KT P6SM FEW250
     FM270200 30005KT P6SM FEW250
     FM270900 09006KT P6SM FEW250
     FM272100 25006KT P6SM SCT250=

USA.gov is the U.S. government's official web portal to all federal, state and local government web resources and services.